Old Perlican, Canada
Current Conditions -  °F | °C
As of 11:00 AM on Friday 24 Oct 2014 (Local Time) from CYYT Reporting Station
Light Rain Light Rain  
Wind Chill: 50°   Ceiling: 200
Heat Index: 50°   Visibility: 0.5mi
Dew Point: 50°   Wind: 15mph
Humidity: 100%   Direction: 90°E
Pressure: 29.96"   Gusts: NA
Location:  48.08°N, 53.02°W
Report Text: CYYT 241300Z 09013KT 1/2SM R11/3500FT/U -RA FG VV002 10/10 A2996 RMK FG8 SLP151
Loading
Personal Weather Stations






























Interactive Weather Map
Tropical Storm Tracking
New forecast layout! Learn more

10-Day Weather Forecast

Advertisements
Track Severe Weather on mobile